Atlanta, Kansas
Current Conditions -  °F | °C
As of 8:55 AM on Friday 19 Dec 2014 (Local Time) from KEQA Reporting Station
Haze Haze  
Wind Chill:   Ceiling: 200
Heat Index:   Visibility: 4mi
Dew Point:   Wind: 3mph
Humidity: 100%   Direction: 160°SSE
Pressure: 30.25"   Gusts: NA
Location:  37.44°N, 96.76°W
Report Text: KEQA 191455Z AUTO 16003KT 4SM BR OVC002 00/00 A3025 RMK AO2
Loading
Personal Weather Stations






























Interactive Weather Map New forecast layout! Learn more

10-Day Weather Forecast

Advertisements
Track Severe Weather on mobile